createdAt,value
2022-11-07T00:00:27.509Z,9.79
2022-11-07T00:02:54.274Z,9.82
2022-11-07T00:05:20.984Z,9.88
2022-11-07T00:07:47.538Z,9.87
2022-11-07T00:10:14.111Z,9.85
2022-11-07T00:12:40.691Z,9.85
2022-11-07T00:15:07.710Z,9.91
2022-11-07T00:17:36.520Z,9.93
2022-11-07T00:20:03.603Z,9.95
2022-11-07T00:22:30.423Z,9.95
2022-11-07T00:24:57.066Z,9.99
2022-11-07T00:27:23.722Z,10.02
2022-11-07T00:29:50.317Z,9.99
2022-11-07T00:32:16.949Z,9.97
2022-11-07T00:34:43.570Z,10.00
2022-11-07T00:37:10.140Z,10.04
2022-11-07T00:39:36.741Z,10.04
2022-11-07T00:42:03.669Z,10.03
2022-11-07T00:44:30.351Z,9.99
2022-11-07T00:46:56.996Z,10.04
2022-11-07T00:49:23.883Z,10.07
2022-11-07T00:51:50.459Z,10.10
2022-11-07T00:54:17.068Z,10.11
2022-11-07T00:56:43.652Z,10.15
2022-11-07T00:59:10.369Z,10.14
2022-11-07T01:01:37.132Z,10.23
2022-11-07T01:04:22.985Z,10.24
2022-11-07T01:06:50.725Z,10.27
2022-11-07T01:09:21.081Z,10.21
2022-11-07T01:11:48.816Z,10.22
2022-11-07T01:14:19.198Z,10.16
2022-11-07T01:16:45.837Z,10.18
2022-11-07T01:19:12.458Z,10.18
2022-11-07T01:21:40.369Z,10.24
2022-11-07T01:24:08.918Z,10.15
2022-11-07T01:26:37.361Z,10.16
2022-11-07T01:29:05.197Z,10.04
2022-11-07T01:31:31.881Z,10.07
2022-11-07T01:33:59.720Z,10.03
2022-11-07T01:36:27.440Z,9.99
2022-11-07T01:38:54.618Z,9.95
2022-11-07T01:41:26.818Z,9.92
2022-11-07T01:43:58.242Z,9.94
2022-11-07T01:46:30.941Z,9.87
2022-11-07T01:49:04.159Z,9.84
2022-11-07T01:51:35.589Z,9.79
2022-11-07T01:54:03.166Z,9.75
2022-11-07T01:56:33.160Z,9.76
2022-11-07T01:59:00.215Z,9.75
2022-11-07T02:01:27.055Z,9.67
2022-11-07T02:03:55.502Z,9.71
2022-11-07T02:06:34.359Z,9.70
2022-11-07T02:09:00.984Z,9.67
2022-11-07T02:11:27.819Z,9.64
2022-11-07T02:13:54.495Z,9.61
2022-11-07T02:16:21.217Z,9.58
2022-11-07T02:18:48.139Z,9.53
2022-11-07T02:21:26.679Z,9.51
2022-11-07T02:24:12.527Z,9.54
2022-11-07T02:26:40.390Z,9.51
2022-11-07T02:29:10.241Z,9.47
2022-11-07T02:31:37.572Z,9.50
2022-11-07T02:34:04.162Z,9.50
2022-11-07T02:36:30.811Z,9.56
2022-11-07T02:38:58.933Z,9.58
2022-11-07T02:41:28.101Z,9.61
2022-11-07T02:43:59.051Z,9.60
2022-11-07T02:46:27.540Z,9.68
2022-11-07T02:48:57.434Z,9.70
2022-11-07T02:51:24.553Z,9.76
2022-11-07T02:53:52.012Z,9.79
2022-11-07T02:56:19.110Z,9.76
2022-11-07T02:58:46.050Z,9.75
2022-11-07T03:01:13.049Z,9.77
2022-11-07T03:03:41.741Z,9.74
2022-11-07T03:06:10.548Z,9.62
2022-11-07T03:08:37.159Z,9.67
2022-11-07T03:11:04.852Z,9.63
2022-11-07T03:13:31.810Z,9.65
2022-11-07T03:15:59.159Z,9.66
2022-11-07T03:18:26.084Z,9.65
2022-11-07T03:20:52.622Z,9.61
2022-11-07T03:23:19.466Z,9.63
2022-11-07T03:25:46.180Z,9.67
2022-11-07T03:28:12.733Z,9.67
2022-11-07T03:30:39.316Z,9.69
2022-11-07T03:33:05.886Z,9.74
2022-11-07T03:35:32.489Z,9.76
2022-11-07T03:37:59.055Z,9.68
2022-11-07T03:40:25.722Z,9.68
2022-11-07T03:42:52.658Z,9.60
2022-11-07T03:45:19.613Z,9.63
2022-11-07T03:47:47.671Z,9.66
2022-11-07T03:50:20.022Z,9.63
2022-11-07T03:52:47.854Z,9.65
2022-11-07T03:55:18.409Z,9.68
2022-11-07T03:57:46.211Z,9.63
2022-11-07T04:00:14.645Z,9.64
2022-11-07T04:02:43.364Z,9.63
2022-11-07T04:05:10.134Z,9.60
2022-11-07T04:07:36.693Z,9.58
2022-11-07T04:10:03.884Z,9.54
2022-11-07T04:12:48.953Z,9.59
2022-11-07T04:15:34.443Z,9.60
2022-11-07T04:18:01.034Z,9.55
2022-11-07T04:20:28.400Z,9.55
2022-11-07T04:22:55.140Z,9.50
2022-11-07T04:25:41.845Z,9.47
2022-11-07T04:28:08.503Z,9.40
2022-11-07T04:30:35.078Z,9.33
2022-11-07T04:33:02.519Z,9.31
2022-11-07T04:35:31.997Z,9.41
2022-11-07T04:38:00.242Z,9.54
2022-11-07T04:40:27.833Z,9.57
2022-11-07T04:42:55.319Z,9.55
2022-11-07T04:45:22.347Z,9.51
2022-11-07T04:47:49.187Z,9.47
2022-11-07T04:50:17.905Z,9.48
2022-11-07T04:52:48.716Z,9.50
2022-11-07T04:55:27.475Z,9.46
2022-11-07T04:57:54.037Z,9.52
2022-11-07T05:00:21.600Z,9.52
2022-11-07T05:02:49.206Z,9.57
2022-11-07T05:05:19.107Z,9.48
2022-11-07T05:07:47.272Z,9.50
2022-11-07T05:10:21.751Z,9.56
2022-11-07T05:12:48.658Z,9.68
2022-11-07T05:15:16.404Z,9.84
2022-11-07T05:17:43.556Z,9.89
2022-11-07T05:20:22.084Z,10.05
2022-11-07T05:23:07.276Z,10.06
2022-11-07T05:25:33.889Z,9.96
2022-11-07T05:28:00.530Z,10.13
2022-11-07T05:30:27.267Z,10.02
2022-11-07T05:32:53.923Z,9.83
2022-11-07T05:35:20.566Z,9.83
2022-11-07T05:37:48.907Z,9.74
2022-11-07T05:40:15.581Z,9.66
2022-11-07T05:42:42.164Z,9.76
2022-11-07T05:45:08.980Z,9.68
2022-11-07T05:47:35.801Z,9.68
2022-11-07T05:50:02.349Z,9.65
2022-11-07T05:52:28.903Z,9.73
2022-11-07T05:54:55.448Z,9.77
2022-11-07T05:57:21.990Z,9.91
2022-11-07T05:59:48.568Z,9.89
2022-11-07T06:02:15.307Z,9.92
2022-11-07T06:04:42.021Z,9.95
2022-11-07T06:07:08.658Z,10.02
2022-11-07T06:09:36.334Z,10.22
2022-11-07T06:12:03.962Z,10.19
2022-11-07T06:14:33.018Z,10.32
2022-11-07T06:16:59.553Z,10.16
2022-11-07T06:19:26.093Z,10.33
2022-11-07T06:21:52.619Z,10.51
2022-11-07T06:24:20.158Z,10.37
2022-11-07T06:26:46.749Z,10.42
2022-11-07T06:29:13.417Z,10.43
2022-11-07T06:31:39.998Z,10.50
2022-11-07T06:34:06.913Z,10.53
2022-11-07T06:36:33.598Z,10.64
2022-11-07T06:39:00.200Z,10.71
2022-11-07T06:41:26.897Z,10.61
2022-11-07T06:43:53.606Z,10.78
2022-11-07T06:46:22.742Z,10.78
2022-11-07T06:48:49.581Z,10.82
2022-11-07T06:51:16.152Z,10.76
2022-11-07T06:53:42.711Z,10.76
2022-11-07T06:56:14.071Z,10.78
2022-11-07T06:58:40.758Z,10.80
2022-11-07T07:01:09.906Z,10.80
2022-11-07T07:03:36.517Z,10.78
2022-11-07T07:06:05.712Z,10.80
2022-11-07T07:08:32.849Z,10.82
2022-11-07T07:11:08.547Z,10.90
2022-11-07T07:13:35.610Z,10.95
2022-11-07T07:16:02.439Z,11.02
2022-11-07T07:18:29.398Z,11.03
2022-11-07T07:21:08.952Z,11.01
2022-11-07T07:23:36.044Z,11.03
2022-11-07T07:26:03.656Z,11.02
2022-11-07T07:28:30.750Z,10.99
2022-11-07T07:31:15.657Z,10.97
2022-11-07T07:33:43.901Z,10.99
2022-11-07T07:36:10.818Z,11.03
2022-11-07T07:38:37.747Z,11.05
2022-11-07T07:41:05.108Z,11.06
2022-11-07T07:43:32.366Z,11.08
2022-11-07T07:46:00.552Z,11.03
2022-11-07T07:48:27.922Z,11.06
2022-11-07T07:50:54.829Z,11.04
2022-11-07T07:53:21.723Z,11.08
2022-11-07T07:55:48.266Z,11.09
2022-11-07T07:58:15.074Z,11.12
2022-11-07T08:00:42.327Z,11.16
2022-11-07T08:03:13.060Z,11.19
2022-11-07T08:05:39.961Z,11.21
2022-11-07T08:08:09.392Z,11.25
2022-11-07T08:10:41.948Z,11.28
2022-11-07T08:13:09.582Z,11.33
2022-11-07T08:15:36.155Z,11.39
2022-11-07T08:18:04.128Z,11.45
2022-11-07T08:20:30.851Z,11.50
2022-11-07T08:23:13.002Z,11.54
2022-11-07T08:25:43.889Z,11.61
2022-11-07T08:28:10.710Z,11.68
2022-11-07T08:30:37.333Z,11.81
2022-11-07T08:33:04.184Z,11.83
2022-11-07T08:35:31.323Z,11.84
2022-11-07T08:38:00.997Z,11.81
2022-11-07T08:40:27.742Z,11.85
2022-11-07T08:42:59.405Z,11.83
2022-11-07T08:45:26.063Z,11.83
2022-11-07T08:47:56.998Z,11.90
2022-11-07T08:50:23.579Z,11.91
2022-11-07T08:52:50.248Z,11.97
2022-11-07T08:55:16.909Z,12.08
2022-11-07T08:57:43.578Z,12.07
2022-11-07T09:00:11.528Z,12.03
2022-11-07T09:03:17.890Z,12.07
2022-11-07T09:05:24.681Z,12.07
2022-11-07T09:07:51.281Z,12.03
2022-11-07T09:10:18.081Z,12.01
2022-11-07T09:12:49.650Z,12.01
2022-11-07T09:15:16.983Z,12.04
2022-11-07T09:17:44.203Z,12.07
2022-11-07T09:20:10.909Z,12.09
2022-11-07T09:22:37.496Z,12.07
2022-11-07T09:25:04.207Z,12.09
2022-11-07T09:27:30.889Z,12.09
2022-11-07T09:29:57.508Z,12.09
2022-11-07T09:32:43.904Z,12.06
2022-11-07T09:35:11.025Z,12.09
2022-11-07T09:37:39.294Z,12.06
2022-11-07T09:40:40.880Z,12.03
2022-11-07T09:43:34.824Z,12.00
2022-11-07T09:46:13.445Z,12.02
2022-11-07T09:49:16.006Z,12.01
2022-11-07T09:52:16.331Z,12.07
2022-11-07T09:54:55.629Z,12.07
2022-11-07T09:57:23.300Z,12.14
2022-11-07T10:00:00.682Z,12.13
2022-11-07T10:02:33.736Z,12.19
2022-11-07T10:05:03.113Z,12.32
2022-11-07T10:07:48.323Z,12.34
2022-11-07T10:10:38.636Z,12.31
2022-11-07T10:13:20.680Z,12.44
2022-11-07T10:15:59.414Z,12.52
2022-11-07T10:18:48.672Z,12.79
2022-11-07T10:21:37.152Z,12.78
2022-11-07T10:24:12.367Z,13.05
2022-11-07T10:26:44.157Z,13.04
2022-11-07T10:29:16.796Z,13.31
2022-11-07T10:31:51.665Z,13.30
2022-11-07T10:34:21.977Z,13.13
2022-11-07T10:36:48.657Z,13.10
2022-11-07T10:39:17.419Z,13.20
2022-11-07T10:41:49.975Z,13.14
2022-11-07T10:44:25.205Z,13.14
2022-11-07T10:46:54.587Z,13.15
2022-11-07T10:49:28.776Z,13.16
2022-11-07T10:52:05.229Z,13.08
2022-11-07T10:54:32.206Z,13.01
2022-11-07T10:57:12.235Z,13.03
2022-11-07T10:59:56.895Z,13.08
2022-11-07T11:02:32.083Z,13.20
2022-11-07T11:05:02.661Z,13.11
2022-11-07T11:07:38.967Z,13.14
2022-11-07T11:10:24.077Z,13.27
2022-11-07T11:12:50.858Z,13.21
2022-11-07T11:15:20.721Z,13.28
2022-11-07T11:17:56.740Z,13.44
2022-11-07T11:20:32.057Z,13.36
2022-11-07T11:22:59.966Z,13.63
2022-11-07T11:25:27.066Z,13.54
2022-11-07T11:28:08.897Z,13.43
2022-11-07T11:30:37.139Z,13.33
2022-11-07T11:33:14.508Z,13.42
2022-11-07T11:35:47.415Z,13.50
2022-11-07T11:38:20.047Z,13.52
2022-11-07T11:40:59.253Z,13.60
2022-11-07T11:43:38.721Z,13.47
2022-11-07T11:46:10.935Z,13.42
2022-11-07T11:48:46.894Z,13.51
2022-11-07T11:51:27.508Z,13.59
2022-11-07T11:53:54.269Z,13.39
2022-11-07T11:56:55.582Z,13.58
2022-11-07T11:59:58.927Z,13.59
2022-11-07T12:02:56.362Z,13.40
2022-11-07T12:05:44.593Z,13.47
2022-11-07T12:08:29.733Z,13.55
2022-11-07T12:11:06.664Z,13.54
2022-11-07T12:13:57.986Z,13.54
2022-11-07T12:16:37.101Z,13.45
2022-11-07T12:19:15.658Z,13.47
2022-11-07T12:21:55.173Z,13.71
2022-11-07T12:24:32.625Z,13.86
2022-11-07T12:27:24.148Z,13.99
2022-11-07T12:30:15.958Z,14.14
2022-11-07T12:32:57.874Z,14.28
2022-11-07T12:35:39.468Z,14.47
2022-11-07T12:38:12.088Z,14.37
2022-11-07T12:40:57.749Z,14.35
2022-11-07T12:43:36.533Z,14.21
2022-11-07T12:46:30.834Z,14.18
2022-11-07T12:49:22.235Z,14.11
2022-11-07T12:52:09.532Z,14.03
2022-11-07T12:54:46.607Z,13.99
2022-11-07T12:57:18.070Z,14.07
2022-11-07T12:59:49.741Z,14.23
2022-11-07T13:02:46.410Z,14.47
2022-11-07T13:05:42.199Z,14.36
2022-11-07T13:08:25.545Z,14.21
2022-11-07T13:11:05.803Z,14.24
2022-11-07T13:13:45.210Z,14.06
2022-11-07T13:16:28.371Z,14.28
2022-11-07T13:18:55.643Z,14.27
2022-11-07T13:21:23.112Z,14.26
2022-11-07T13:23:50.007Z,14.07
2022-11-07T13:26:46.431Z,14.09
2022-11-07T13:29:24.408Z,14.09
2022-11-07T13:32:09.843Z,13.77
2022-11-07T13:35:00.321Z,13.59
2022-11-07T13:37:31.055Z,13.54
2022-11-07T13:40:24.149Z,13.37
2022-11-07T13:43:06.400Z,13.34
2022-11-07T13:45:40.791Z,13.26
2022-11-07T13:48:19.795Z,13.36
2022-11-07T13:51:00.711Z,13.39
2022-11-07T13:53:35.896Z,13.44
2022-11-07T13:56:19.210Z,13.45
2022-11-07T13:58:46.542Z,13.36
2022-11-07T14:01:14.384Z,13.44
2022-11-07T14:03:41.308Z,13.43
2022-11-07T14:06:12.406Z,13.52
2022-11-07T14:08:41.418Z,13.53
2022-11-07T14:11:17.196Z,13.39
2022-11-07T14:13:45.998Z,13.46
2022-11-07T14:16:25.969Z,13.38
2022-11-07T14:19:02.092Z,13.54
2022-11-07T14:21:32.070Z,13.56
2022-11-07T14:23:58.944Z,13.49
2022-11-07T14:26:30.908Z,13.47
2022-11-07T14:29:00.735Z,13.41
2022-11-07T14:31:36.490Z,13.33
2022-11-07T14:34:14.154Z,13.36
2022-11-07T14:36:52.956Z,13.30
2022-11-07T14:39:22.538Z,13.28
2022-11-07T14:41:49.885Z,13.29
2022-11-07T14:44:22.923Z,13.28
2022-11-07T14:46:53.089Z,13.29
2022-11-07T14:49:36.680Z,13.25
2022-11-07T14:52:03.815Z,13.31
2022-11-07T14:54:38.048Z,13.30
2022-11-07T14:57:05.906Z,13.25
2022-11-07T14:59:33.558Z,13.28
2022-11-07T15:02:06.034Z,13.19
2022-11-07T15:04:40.429Z,13.23
2022-11-07T15:07:35.549Z,13.20
2022-11-07T15:10:19.317Z,13.21
2022-11-07T15:12:51.107Z,13.17
2022-11-07T15:15:23.557Z,13.16
2022-11-07T15:17:53.026Z,13.09
2022-11-07T15:20:33.329Z,13.08
2022-11-07T15:23:02.233Z,13.05
2022-11-07T15:25:39.076Z,13.03
2022-11-07T15:28:18.732Z,13.02
2022-11-07T15:30:47.010Z,12.98
2022-11-07T15:33:16.476Z,12.97
2022-11-07T15:35:45.108Z,12.97
2022-11-07T15:38:16.939Z,12.89
2022-11-07T15:40:43.701Z,12.83
2022-11-07T15:43:10.273Z,12.75
2022-11-07T15:45:37.061Z,12.77
2022-11-07T15:48:09.018Z,12.74
2022-11-07T15:50:42.415Z,12.75
2022-11-07T15:53:20.100Z,12.74
2022-11-07T15:55:47.593Z,12.69
2022-11-07T15:58:15.660Z,12.70
2022-11-07T16:00:42.960Z,12.64
2022-11-07T16:03:14.248Z,12.62
2022-11-07T16:05:42.316Z,12.59
2022-11-07T16:08:13.715Z,12.59
2022-11-07T16:10:45.026Z,12.55
2022-11-07T16:13:11.654Z,12.58
2022-11-07T16:15:40.677Z,12.57
2022-11-07T16:18:16.136Z,12.56
2022-11-07T16:20:43.698Z,12.54
2022-11-07T16:23:11.218Z,12.55
2022-11-07T16:25:40.753Z,12.56
2022-11-07T16:28:23.423Z,12.57
2022-11-07T16:30:50.927Z,12.57
2022-11-07T16:33:17.642Z,12.58
2022-11-07T16:35:44.543Z,12.54
2022-11-07T16:38:16.065Z,12.49
2022-11-07T16:40:43.292Z,12.49
2022-11-07T16:43:09.960Z,12.46
2022-11-07T16:45:38.093Z,12.40
2022-11-07T16:48:05.159Z,12.39
2022-11-07T16:50:32.224Z,12.32
2022-11-07T16:52:58.772Z,12.29
2022-11-07T16:55:25.368Z,12.27
2022-11-07T16:57:51.907Z,12.31
2022-11-07T17:00:23.504Z,12.30
2022-11-07T17:02:50.423Z,12.33
2022-11-07T17:05:17.647Z,12.31
2022-11-07T17:07:44.348Z,12.34
2022-11-07T17:10:16.286Z,12.30
2022-11-07T17:12:42.876Z,12.28
2022-11-07T17:15:10.271Z,12.24
2022-11-07T17:17:36.856Z,12.24
2022-11-07T17:20:03.906Z,12.25
2022-11-07T17:22:30.511Z,12.28
2022-11-07T17:24:57.090Z,12.28
2022-11-07T17:27:25.770Z,12.28
2022-11-07T17:29:53.189Z,12.24
2022-11-07T17:32:19.942Z,12.13
2022-11-07T17:34:51.525Z,12.13
2022-11-07T17:37:31.309Z,12.01
2022-11-07T17:39:58.012Z,11.94
2022-11-07T17:42:24.590Z,11.97
2022-11-07T17:44:51.366Z,12.01
2022-11-07T17:47:36.443Z,11.90
2022-11-07T17:50:04.336Z,11.84
2022-11-07T17:52:30.952Z,11.69
2022-11-07T17:54:57.708Z,11.64
2022-11-07T17:57:24.436Z,11.60
2022-11-07T17:59:51.784Z,11.67
2022-11-07T18:02:19.859Z,11.69
2022-11-07T18:04:47.140Z,11.71
2022-11-07T18:07:13.837Z,11.67
2022-11-07T18:09:40.905Z,11.59
2022-11-07T18:12:09.627Z,11.60
2022-11-07T18:14:36.355Z,11.55
2022-11-07T18:17:03.382Z,11.48
2022-11-07T18:19:30.048Z,11.44
2022-11-07T18:21:56.679Z,11.42
2022-11-07T18:24:24.306Z,11.31
2022-11-07T18:26:51.954Z,11.30
2022-11-07T18:29:19.365Z,11.12
2022-11-07T18:31:47.498Z,11.15
2022-11-07T18:34:14.584Z,11.16
2022-11-07T18:36:42.573Z,11.32
2022-11-07T18:39:14.040Z,11.02
2022-11-07T18:41:41.722Z,11.10
2022-11-07T18:44:09.547Z,10.84
2022-11-07T18:46:36.478Z,10.72
2022-11-07T18:49:03.901Z,10.84
2022-11-07T18:51:31.591Z,11.03
2022-11-07T18:54:00.190Z,10.97
2022-11-07T18:56:26.793Z,11.01
2022-11-07T18:58:53.362Z,10.83
2022-11-07T19:01:24.464Z,10.71
2022-11-07T19:03:51.870Z,10.74
2022-11-07T19:06:20.889Z,10.68
2022-11-07T19:08:48.246Z,10.68
2022-11-07T19:11:21.853Z,10.91
2022-11-07T19:13:48.655Z,10.99
2022-11-07T19:16:17.274Z,10.99
2022-11-07T19:18:49.389Z,10.93
2022-11-07T19:21:19.951Z,11.02
2022-11-07T19:23:47.938Z,10.90
2022-11-07T19:26:14.765Z,10.95
2022-11-07T19:28:41.768Z,10.89
2022-11-07T19:31:12.989Z,10.98
2022-11-07T19:33:44.905Z,10.83
2022-11-07T19:36:17.164Z,10.85
2022-11-07T19:38:44.899Z,10.82
2022-11-07T19:41:12.709Z,10.81
2022-11-07T19:43:39.874Z,10.73
2022-11-07T19:46:13.733Z,10.70
2022-11-07T19:48:40.257Z,10.77
2022-11-07T19:51:08.094Z,10.75
2022-11-07T19:53:34.741Z,10.63
2022-11-07T19:56:06.974Z,10.62
2022-11-07T19:58:36.211Z,10.56
2022-11-07T20:01:10.008Z,10.53
2022-11-07T20:03:36.688Z,10.58
2022-11-07T20:06:03.416Z,10.49
2022-11-07T20:08:30.030Z,10.43
2022-11-07T20:10:56.617Z,10.47
2022-11-07T20:13:23.239Z,10.44
2022-11-07T20:15:49.794Z,10.51
2022-11-07T20:18:16.476Z,10.67
2022-11-07T20:20:43.060Z,10.66
2022-11-07T20:23:10.006Z,10.66
2022-11-07T20:25:41.112Z,10.66
2022-11-07T20:28:08.351Z,10.72
2022-11-07T20:30:35.225Z,10.85
2022-11-07T20:33:01.844Z,10.92
2022-11-07T20:35:31.411Z,10.76
2022-11-07T20:37:57.979Z,10.80
2022-11-07T20:40:29.071Z,10.79
2022-11-07T20:42:55.936Z,10.82
2022-11-07T20:45:22.554Z,10.85
2022-11-07T20:47:49.762Z,10.77
2022-11-07T20:50:16.424Z,10.76
2022-11-07T20:52:43.042Z,10.63
2022-11-07T20:55:09.625Z,10.60
2022-11-07T20:57:36.161Z,10.62
2022-11-07T21:00:03.754Z,10.69
2022-11-07T21:02:30.374Z,10.55
2022-11-07T21:05:16.653Z,10.55
2022-11-07T21:07:44.504Z,10.45
2022-11-07T21:10:11.568Z,10.36
2022-11-07T21:12:38.118Z,10.27
2022-11-07T21:15:05.270Z,10.31
2022-11-07T21:17:31.840Z,10.29
2022-11-07T21:19:58.430Z,10.22
2022-11-07T21:22:29.214Z,10.36
2022-11-07T21:24:56.484Z,10.34
2022-11-07T21:27:23.321Z,10.32
2022-11-07T21:29:49.912Z,10.24
2022-11-07T21:32:16.496Z,10.33
2022-11-07T21:34:45.333Z,10.25
2022-11-07T21:37:11.998Z,10.31
2022-11-07T21:39:38.566Z,10.27
2022-11-07T21:42:05.262Z,10.25
2022-11-07T21:44:31.933Z,10.26
2022-11-07T21:46:58.463Z,10.15
2022-11-07T21:49:25.026Z,10.18
2022-11-07T21:51:51.701Z,10.14
2022-11-07T21:54:18.275Z,10.12
2022-11-07T21:56:45.042Z,9.94
2022-11-07T21:59:12.110Z,9.89
2022-11-07T22:01:40.216Z,9.90
2022-11-07T22:04:11.087Z,9.83
2022-11-07T22:06:41.180Z,9.84
2022-11-07T22:09:15.361Z,9.76
2022-11-07T22:11:42.239Z,9.85
2022-11-07T22:14:11.678Z,9.81
2022-11-07T22:16:38.474Z,9.88
2022-11-07T22:19:09.749Z,10.06
2022-11-07T22:21:38.750Z,9.97
2022-11-07T22:24:05.476Z,10.07
2022-11-07T22:26:32.051Z,10.05
2022-11-07T22:28:58.648Z,9.94
2022-11-07T22:31:30.117Z,9.96
2022-11-07T22:33:59.538Z,9.85
2022-11-07T22:36:26.369Z,9.74
2022-11-07T22:38:53.125Z,9.64
2022-11-07T22:41:22.870Z,9.60
2022-11-07T22:43:50.230Z,9.51
2022-11-07T22:46:20.164Z,9.33
2022-11-07T22:48:47.903Z,9.35
2022-11-07T22:51:20.365Z,9.33
2022-11-07T22:53:47.115Z,9.39
2022-11-07T22:56:19.417Z,9.47
2022-11-07T22:58:47.506Z,9.46
2022-11-07T23:01:18.993Z,9.52
2022-11-07T23:03:46.664Z,9.51
2022-11-07T23:06:13.275Z,9.52
2022-11-07T23:08:39.991Z,9.61
2022-11-07T23:11:44.647Z,9.58
2022-11-07T23:14:01.935Z,9.41
2022-11-07T23:16:36.856Z,9.30
2022-11-07T23:19:06.517Z,9.29
2022-11-07T23:21:33.338Z,9.18
2022-11-07T23:24:00.646Z,9.16
2022-11-07T23:26:35.230Z,9.12
2022-11-07T23:29:11.226Z,9.21
2022-11-07T23:31:41.663Z,9.42
2022-11-07T23:34:09.196Z,9.47
2022-11-07T23:36:36.064Z,9.41
2022-11-07T23:39:05.225Z,9.37
2022-11-07T23:41:31.833Z,9.27
2022-11-07T23:43:59.272Z,9.32
2022-11-07T23:46:44.377Z,9.14
2022-11-07T23:49:29.762Z,9.09
2022-11-07T23:51:56.368Z,8.99
2022-11-07T23:54:41.534Z,9.00
2022-11-07T23:57:08.092Z,8.89
2022-11-07T23:59:54.118Z,8.88
